CheckWX is a tool to help pilots better visualize weather data.  It is not intended as a substitute for an official pre-flight weather briefing.

20:51:48 UTC

LKPD TAF
Pardubice Airport
Pardubice, Czech Republic
TAF LKPD 161700Z 1618/1718 30006KT CAVOK BECMG 1619/1621 VRB02KT BECMG 1707/1709 09008KT TEMPO 1709/1712 SCT035 TEMPO 1710/1717 09014KT

Jun-16@
18:00 UTC

Jun-16 @ 18:00 UTC

Jun-16@
19:00 UTC

Jun-16 @ 19:00 UTC

TAF LKPD 161700Z 1618/1718 30006KT CAVOK

Expired

Wind
  • 300° at 6 KTS
Conditions
No significant weather
Cloud Levels
  • No significant clouds

Jun-16@
19:00 UTC

Jun-16 @ 19:00 UTC

Jun-17@
07:00 UTC

Jun-17 @ 07:00 UTC

BECMG 1619/1621 VRB02KT

Becoming

Becoming Conditions expected by Sun, Jun 16, 2019 @ 21:00 UTC

Wind
  • Variable at 2 KTS
Conditions
No significant weather
Cloud Levels
  • No significant clouds

Jun-17@
07:00 UTC

Jun-17 @ 07:00 UTC

Jun-17@
18:00 UTC

Jun-17 @ 18:00 UTC

BECMG 1707/1709 09008KT

Becoming

Becoming Conditions expected by Mon, Jun 17, 2019 @ 09:00 UTC

Wind
  • 090° at 8 KTS
Conditions
No significant weather
Cloud Levels
  • No significant clouds

Jun-17@
09:00 UTC

Jun-17 @ 09:00 UTC

Jun-17@
12:00 UTC

Jun-17 @ 12:00 UTC

TEMPO 1709/1712 SCT035

Temporary

Temporary Changes expected for less than half the time period

Cloud Levels
  • Scattered at 3,500' AGL

Jun-17@
10:00 UTC

Jun-17 @ 10:00 UTC

Jun-17@
17:00 UTC

Jun-17 @ 17:00 UTC

TEMPO 1710/1717 09014KT

Temporary

Temporary Changes expected for less than half the time period

Wind
  • 090° at 14 KTS